Time;durP1;ratioP1;P1;durP2;ratioP2;P2;SDS_P1;SDS_P2;PMS_P1;PMS_P2;Temp;Humidity;BMP_temperature;BMP_pressure;BME280_temperature;BME280_humidity;BME280_pressure;Samples;Min_cycle;Max_cycle;Signal;HPM_P1;HPM_P2
2022/12/02 00:01:12;;;;;;;47.03;23.40;;;3.80;99.90;;;;;;5002862;28;20065;-77
2022/12/02 00:03:38;;;;;;;50.05;23.65;;;3.80;99.90;;;;;;4999376;28;20022;-77
2022/12/02 00:06:04;;;;;;;51.33;23.85;;;3.90;99.90;;;;;;5007623;28;20533;-77
2022/12/02 00:08:32;;;;;;;53.50;24.23;;;3.80;99.90;;;;;;5006102;28;20037;-77
2022/12/02 00:11:01;;;;;;;46.78;22.70;;;3.80;99.90;;;;;;5003797;28;20037;-77
2022/12/02 00:13:39;;;;;;;49.28;23.25;;;3.90;99.90;;;;;;4996077;28;20034;-79
2022/12/02 00:16:11;;;;;;;46.13;22.85;;;3.90;99.90;;;;;;5003775;28;20022;-77
2022/12/02 00:18:36;;;;;;;44.30;21.75;;;3.90;99.90;;;;;;5002001;28;20026;-78
2022/12/02 00:21:02;;;;;;;47.45;21.98;;;3.80;99.90;;;;;;5006430;28;20037;-78
2022/12/02 00:23:28;;;;;;;49.85;22.85;;;3.90;99.90;;;;;;5003485;28;20101;-78
2022/12/02 00:25:54;;;;;;;44.15;21.95;;;3.90;99.90;;;;;;5002917;28;20406;-77
2022/12/02 00:28:20;;;;;;;45.30;21.50;;;3.90;99.90;;;;;;5000338;28;20071;-78
2022/12/02 00:30:46;;;;;;;49.67;22.15;;;3.80;99.90;;;;;;5001428;28;20725;-78
2022/12/02 00:33:11;;;;;;;51.72;23.92;;;3.90;99.90;;;;;;5001914;28;20034;-78
2022/12/02 00:35:37;;;;;;;50.25;23.30;;;3.90;99.90;;;;;;5000936;28;20045;-78
2022/12/02 00:38:03;;;;;;;44.88;22.48;;;3.90;99.90;;;;;;5006183;28;20057;-78
2022/12/02 00:40:29;;;;;;;48.63;23.55;;;3.90;99.90;;;;;;5004373;28;20030;-78
2022/12/02 00:46:30;;;;;;;50.53;23.13;;;3.90;99.90;;;;;;5006626;28;20028;-78
2022/12/02 00:48:24;;;;;;;51.03;22.63;;;3.90;99.90;;;;;;5004009;28;20121;-78
2022/12/02 00:50:50;;;;;;;46.88;21.73;;;3.80;99.90;;;;;;5004811;28;20105;-78
2022/12/02 00:53:15;;;;;;;44.45;22.08;;;3.80;99.90;;;;;;4994470;28;20458;-78
2022/12/02 00:55:41;;;;;;;44.55;22.38;;;3.80;99.90;;;;;;5004905;28;20084;-78
2022/12/02 00:58:06;;;;;;;51.83;23.08;;;3.80;99.90;;;;;;5001202;28;20030;-78
2022/12/02 01:00:32;;;;;;;50.40;23.40;;;3.80;99.90;;;;;;5006567;28;20489;-78
2022/12/02 01:02:58;;;;;;;46.13;21.58;;;3.80;99.90;;;;;;4997475;28;20156;-78
2022/12/02 01:05:23;;;;;;;54.63;24.20;;;3.80;99.90;;;;;;5001098;28;20022;-78
2022/12/02 01:07:49;;;;;;;46.55;22.42;;;3.80;99.90;;;;;;4999570;28;20041;-78
2022/12/02 01:10:14;;;;;;;44.88;22.75;;;3.80;99.90;;;;;;5001773;28;20045;-78
2022/12/02 01:12:40;;;;;;;51.22;22.77;;;3.80;99.90;;;;;;5005428;28;20579;-78
2022/12/02 01:15:06;;;;;;;46.25;21.73;;;3.90;99.90;;;;;;5009098;28;20113;-77
2022/12/02 01:17:32;;;;;;;49.70;23.30;;;3.80;99.90;;;;;;5016937;28;20026;-77
2022/12/02 01:19:57;;;;;;;48.75;22.48;;;3.90;99.90;;;;;;5022941;28;20277;-77
2022/12/02 01:22:23;;;;;;;50.45;23.77;;;3.80;99.90;;;;;;5023108;28;20030;-77
2022/12/02 01:24:49;;;;;;;46.17;22.20;;;3.90;99.90;;;;;;5026690;28;20048;-78
2022/12/02 01:27:14;;;;;;;49.35;24.02;;;3.90;99.90;;;;;;5027719;28;20037;-77
2022/12/02 01:29:40;;;;;;;51.67;24.25;;;3.90;99.90;;;;;;5030149;28;20164;-77
2022/12/02 01:32:06;;;;;;;50.78;23.83;;;3.90;99.90;;;;;;5016857;28;20049;-78
2022/12/02 01:34:31;;;;;;;48.65;23.25;;;3.90;99.90;;;;;;5002449;28;20050;-77
2022/12/02 01:36:57;;;;;;;49.83;21.75;;;3.90;99.90;;;;;;5002839;28;20393;-77
2022/12/02 01:39:22;;;;;;;46.88;22.17;;;3.90;99.90;;;;;;5008320;28;20034;-77
2022/12/02 01:41:48;;;;;;;49.42;21.55;;;3.90;99.90;;;;;;5008247;28;20084;-77
2022/12/02 01:44:14;;;;;;;46.67;22.38;;;3.80;99.90;;;;;;5007162;28;20038;-77
2022/12/02 01:46:41;;;;;;;50.40;23.70;;;3.90;99.90;;;;;;5006568;28;20526;-77
2022/12/02 01:49:07;;;;;;;50.90;21.63;;;3.90;99.90;;;;;;5003165;28;20034;-77
2022/12/02 01:51:32;;;;;;;45.33;21.88;;;3.90;99.90;;;;;;5020092;28;20037;-77
2022/12/02 01:53:58;;;;;;;47.47;22.63;;;3.90;99.90;;;;;;5006070;28;20045;-77
2022/12/02 01:56:26;;;;;;;49.10;22.48;;;3.90;99.90;;;;;;5002528;28;20437;-77
2022/12/02 01:58:52;;;;;;;56.10;22.83;;;3.90;99.90;;;;;;5006581;28;20030;-77
2022/12/02 02:01:26;;;;;;;42.70;21.75;;;3.90;99.90;;;;;;5007377;28;20026;-77
2022/12/02 02:03:51;;;;;;;53.35;25.63;;;3.80;99.90;;;;;;5002870;28;20558;-77
2022/12/02 02:06:17;;;;;;;49.90;22.83;;;3.90;99.90;;;;;;5002251;28;20116;-77
2022/12/02 02:08:43;;;;;;;51.75;23.02;;;3.80;99.90;;;;;;5001705;28;20105;-77
2022/12/02 02:11:08;;;;;;;50.95;23.52;;;3.90;99.90;;;;;;5005640;28;20030;-77
2022/12/02 02:13:34;;;;;;;53.20;24.90;;;3.80;99.90;;;;;;5002203;28;20478;-77
2022/12/02 02:16:00;;;;;;;53.90;23.65;;;3.90;99.90;;;;;;5002717;28;20026;-77
2022/12/02 02:18:25;;;;;;;54.50;22.70;;;3.80;99.90;;;;;;5001586;28;20044;-77
2022/12/02 02:20:52;;;;;;;48.35;22.50;;;3.90;99.90;;;;;;5007622;28;20113;-77
2022/12/02 02:23:23;;;;;;;50.05;22.75;;;3.80;99.90;;;;;;5006772;28;20061;-77
2022/12/02 02:25:52;;;;;;;50.53;24.75;;;3.80;99.90;;;;;;5001548;28;20041;-77
2022/12/02 02:28:19;;;;;;;47.47;23.88;;;3.90;99.90;;;;;;5002765;28;20084;-77
2022/12/02 02:30:45;;;;;;;53.75;24.55;;;3.80;99.90;;;;;;5007605;28;20536;-77
2022/12/02 02:33:14;;;;;;;50.88;24.83;;;3.80;99.90;;;;;;5004546;28;20029;-76
2022/12/02 02:35:41;;;;;;;51.47;24.75;;;3.80;99.90;;;;;;5004184;28;20014;-77
2022/12/02 02:38:09;;;;;;;54.40;24.45;;;3.80;99.90;;;;;;5005173;28;20049;-77
2022/12/02 02:40:35;;;;;;;56.85;24.42;;;3.80;99.90;;;;;;5004212;28;20018;-77
2022/12/02 02:43:02;;;;;;;53.55;24.48;;;3.80;99.90;;;;;;5006499;28;20478;-77
2022/12/02 02:45:32;;;;;;;51.15;23.20;;;3.80;99.90;;;;;;5005531;28;20442;-77
2022/12/02 02:47:59;;;;;;;56.35;23.33;;;3.80;99.90;;;;;;5008096;28;20034;-77
2022/12/02 02:50:26;;;;;;;51.90;24.08;;;3.80;99.90;;;;;;5003403;28;20533;-77
2022/12/02 02:52:53;;;;;;;51.92;24.85;;;3.80;99.90;;;;;;5004173;28;20129;-77
2022/12/02 02:55:21;;;;;;;50.75;24.05;;;3.80;99.90;;;;;;5005337;28;20052;-77
2022/12/02 02:57:48;;;;;;;50.40;22.35;;;3.80;99.90;;;;;;4998856;28;20076;-77
2022/12/02 03:00:14;;;;;;;48.88;23.60;;;3.80;99.90;;;;;;5007667;28;20045;-77
2022/12/02 03:02:42;;;;;;;49.45;22.95;;;3.80;99.90;;;;;;5003729;28;20084;-77
2022/12/02 03:05:08;;;;;;;48.90;22.05;;;3.70;99.90;;;;;;5004359;28;20475;-77
2022/12/02 03:07:34;;;;;;;46.58;22.60;;;3.80;99.90;;;;;;5005622;28;20070;-77
2022/12/02 03:10:01;;;;;;;45.45;22.25;;;3.80;99.90;;;;;;5003301;28;20066;-77
2022/12/02 03:12:27;;;;;;;45.72;21.70;;;3.70;99.90;;;;;;5004603;28;20053;-77
2022/12/02 03:14:53;;;;;;;55.17;24.27;;;3.70;99.90;;;;;;5003820;28;20057;-77
2022/12/02 03:17:19;;;;;;;47.92;22.40;;;3.70;99.90;;;;;;5004679;28;20029;-77
2022/12/02 03:19:45;;;;;;;52.40;23.55;;;3.70;99.90;;;;;;5004750;28;20030;-77
2022/12/02 03:22:11;;;;;;;50.58;23.27;;;3.60;99.90;;;;;;5005470;28;20048;-77
2022/12/02 03:24:37;;;;;;;46.50;22.10;;;3.60;99.90;;;;;;5003712;28;20038;-77
2022/12/02 03:27:05;;;;;;;47.92;23.55;;;3.60;99.90;;;;;;5002286;28;20038;-77
2022/12/02 03:29:32;;;;;;;53.67;23.08;;;3.60;99.90;;;;;;5008829;28;20076;-77
2022/12/02 03:31:59;;;;;;;47.53;23.73;;;3.60;99.90;;;;;;5004831;28;20112;-77
2022/12/02 03:34:26;;;;;;;51.45;23.15;;;3.60;99.90;;;;;;5004674;28;20034;-77
2022/12/02 03:36:52;;;;;;;49.75;22.63;;;3.70;99.90;;;;;;5003490;28;20037;-78
2022/12/02 03:39:19;;;;;;;51.25;22.45;;;3.70;99.90;;;;;;5004511;28;20057;-76
2022/12/02 03:41:45;;;;;;;55.70;23.38;;;3.60;99.90;;;;;;5007242;28;20026;-77
2022/12/02 03:44:11;;;;;;;50.75;23.73;;;3.60;99.90;;;;;;5009600;28;20025;-77
2022/12/02 03:46:37;;;;;;;51.72;23.50;;;3.60;99.90;;;;;;5003315;28;20474;-77
2022/12/02 03:49:03;;;;;;;50.33;22.98;;;3.60;99.90;;;;;;5006731;28;20451;-77
2022/12/02 03:51:30;;;;;;;48.63;23.00;;;3.60;99.90;;;;;;5005031;28;20161;-77
2022/12/02 03:53:56;;;;;;;51.28;24.63;;;3.60;99.90;;;;;;5003333;28;20031;-77
2022/12/02 03:56:22;;;;;;;55.95;25.30;;;3.60;99.90;;;;;;5004974;28;20440;-77
2022/12/02 03:58:50;;;;;;;53.22;22.38;;;3.60;99.90;;;;;;5002366;28;20022;-77
2022/12/02 04:01:17;;;;;;;48.92;22.02;;;3.60;99.90;;;;;;5002226;28;20022;-77
2022/12/02 04:03:43;;;;;;;50.03;22.77;;;3.60;99.90;;;;;;5001969;28;20034;-77
2022/12/02 04:06:09;;;;;;;52.35;24.08;;;3.60;99.90;;;;;;5004397;28;20550;-77
2022/12/02 04:08:35;;;;;;;50.50;21.88;;;3.50;99.90;;;;;;5001854;28;20037;-78
2022/12/02 04:11:00;;;;;;;47.28;21.75;;;3.60;99.90;;;;;;4999834;28;20026;-77
2022/12/02 04:13:26;;;;;;;51.35;23.23;;;3.60;99.90;;;;;;5001314;23;20042;-81
2022/12/02 04:15:51;;;;;;;48.63;23.40;;;3.60;99.90;;;;;;4986442;28;20038;-81
2022/12/02 04:18:17;;;;;;;47.83;22.50;;;3.60;99.90;;;;;;4986763;28;20053;-81
2022/12/02 04:20:43;;;;;;;51.90;22.95;;;3.60;99.90;;;;;;4985418;28;20080;-81
2022/12/02 04:23:08;;;;;;;48.97;21.70;;;3.60;99.90;;;;;;4983851;28;20088;-80
2022/12/02 04:25:34;;;;;;;53.53;24.40;;;3.60;99.90;;;;;;4977550;28;20041;-80
2022/12/02 04:28:00;;;;;;;48.88;24.00;;;3.60;99.90;;;;;;4984753;28;20031;-81
2022/12/02 04:30:25;;;;;;;55.05;24.42;;;3.60;99.90;;;;;;4985928;28;20523;-81
2022/12/02 04:32:51;;;;;;;54.20;24.65;;;3.60;99.90;;;;;;4986038;28;20076;-81
2022/12/02 04:35:17;;;;;;;54.35;23.55;;;3.60;99.90;;;;;;4987295;28;20097;-81
2022/12/02 04:37:43;;;;;;;53.47;24.15;;;3.70;99.90;;;;;;4987615;28;20030;-81
2022/12/02 04:40:09;;;;;;;51.85;24.27;;;3.60;99.90;;;;;;4982766;28;20376;-81
2022/12/02 04:42:35;;;;;;;53.15;24.27;;;3.70;99.90;;;;;;4982634;28;20026;-81
2022/12/02 04:45:01;;;;;;;55.58;24.58;;;3.60;99.90;;;;;;4980448;28;20652;-82
2022/12/02 04:47:27;;;;;;;52.72;24.50;;;3.60;99.90;;;;;;4984656;28;20480;-81
2022/12/02 04:49:52;;;;;;;49.95;24.90;;;3.60;99.90;;;;;;4978554;28;20049;-82
2022/12/02 04:52:18;;;;;;;57.95;24.40;;;3.60;99.90;;;;;;4986670;28;20042;-80
2022/12/02 04:54:43;;;;;;;53.47;24.65;;;3.70;99.90;;;;;;4983543;28;20037;-81
2022/12/02 04:57:09;;;;;;;52.13;25.13;;;3.70;99.90;;;;;;4984782;28;20030;-81
2022/12/02 04:59:35;;;;;;;54.10;24.58;;;3.60;99.90;;;;;;4980226;28;20100;-81
2022/12/02 05:02:00;;;;;;;54.28;25.67;;;3.60;99.90;;;;;;4982213;28;20504;-81
2022/12/02 05:04:26;;;;;;;55.15;24.00;;;3.70;99.90;;;;;;4975979;28;20022;-81
2022/12/02 05:06:51;;;;;;;54.13;22.83;;;3.60;99.90;;;;;;4976872;28;20105;-81
2022/12/02 05:09:17;;;;;;;61.00;25.55;;;3.60;99.90;;;;;;4977245;28;20031;-81
2022/12/02 05:11:43;;;;;;;51.15;23.33;;;3.60;99.90;;;;;;4985281;28;20026;-80
2022/12/02 05:14:08;;;;;;;50.30;23.80;;;3.60;99.90;;;;;;4981830;28;20034;-81
2022/12/02 05:16:34;;;;;;;49.00;23.58;;;3.60;99.90;;;;;;4987793;28;20042;-81
2022/12/02 05:19:00;;;;;;;55.35;25.40;;;3.60;99.90;;;;;;4980279;28;20038;-81
2022/12/02 05:21:26;;;;;;;53.63;23.80;;;3.60;99.90;;;;;;4982667;28;20402;-81
2022/12/02 05:23:52;;;;;;;51.83;24.58;;;3.60;99.90;;;;;;4977549;28;20018;-81
2022/12/02 05:26:17;;;;;;;49.33;23.85;;;3.60;99.90;;;;;;4980515;28;20161;-81
2022/12/02 05:28:43;;;;;;;54.40;24.58;;;3.60;99.90;;;;;;4988232;28;20030;-81
2022/12/02 05:31:08;;;;;;;55.20;25.80;;;3.60;99.90;;;;;;4982890;28;20026;-81
2022/12/02 05:33:34;;;;;;;52.90;24.63;;;3.60;99.90;;;;;;4989429;28;20117;-81
2022/12/02 05:36:00;;;;;;;51.58;22.90;;;3.60;99.90;;;;;;4984243;28;20030;-81
2022/12/02 05:38:25;;;;;;;50.70;23.63;;;3.60;99.90;;;;;;4988169;28;20506;-81
2022/12/02 05:40:57;;;;;;;44.20;22.13;;;3.60;99.90;;;;;;4985689;28;20030;-81
2022/12/02 05:43:24;;;;;;;51.15;23.15;;;3.60;99.90;;;;;;4979372;28;20621;-78
2022/12/02 05:45:54;;;;;;;47.38;22.02;;;3.60;99.90;;;;;;4984125;28;20033;-78
2022/12/02 05:48:20;;;;;;;56.10;24.05;;;3.70;99.90;;;;;;4989027;28;20038;-78
2022/12/02 05:50:46;;;;;;;51.97;23.25;;;3.70;99.90;;;;;;4985253;28;20037;-78
2022/12/02 05:53:23;;;;;;;48.40;23.42;;;3.80;99.90;;;;;;4982657;28;20023;-79
2022/12/02 05:55:53;;;;;;;51.80;24.23;;;3.80;99.90;;;;;;4986978;28;20184;-79
2022/12/02 05:58:19;;;;;;;60.22;22.85;;;3.80;99.90;;;;;;4981770;28;20491;-82
2022/12/02 06:00:54;;;;;;;49.85;23.17;;;3.70;99.90;;;;;;4979558;28;20178;-82
2022/12/02 06:03:20;;;;;;;43.13;22.17;;;3.70;99.90;;;;;;4984798;28;20030;-81
2022/12/02 06:05:47;;;;;;;46.83;23.25;;;3.80;99.90;;;;;;4982805;28;20030;-81
2022/12/02 06:08:16;;;;;;;49.63;24.20;;;3.80;99.90;;;;;;4984566;28;20027;-82
2022/12/02 06:10:47;;;;;;;48.45;22.30;;;3.70;99.90;;;;;;5008058;28;20475;-81
2022/12/02 06:13:19;;;;;;;48.45;23.48;;;3.70;99.90;;;;;;4982855;28;20076;-81
2022/12/02 06:15:46;;;;;;;46.72;22.30;;;3.70;99.90;;;;;;4986998;28;20026;-81
2022/12/02 06:18:23;;;;;;;46.97;23.30;;;3.70;99.90;;;;;;4984987;28;20035;-81
2022/12/02 06:20:55;;;;;;;50.33;22.55;;;3.70;99.90;;;;;;4986194;28;20065;-82
2022/12/02 06:23:21;;;;;;;51.05;23.92;;;3.70;99.90;;;;;;4983774;28;20437;-80
2022/12/02 06:25:50;;;;;;;49.75;22.52;;;3.70;99.90;;;;;;4984155;28;20093;-82
2022/12/02 06:28:27;;;;;;;52.90;24.73;;;3.70;99.90;;;;;;4986200;28;20499;-82
2022/12/02 06:31:00;;;;;;;58.72;25.42;;;3.70;99.90;;;;;;4982417;28;20034;-80
2022/12/02 06:33:30;;;;;;;57.60;26.52;;;3.60;99.90;;;;;;4984582;28;20062;-86
2022/12/02 06:35:57;;;;;;;51.88;23.98;;;3.70;99.90;;;;;;4986790;28;20035;-82
2022/12/02 06:38:33;;;;;;;52.05;23.67;;;3.60;99.90;;;;;;4982224;28;20113;-83
2022/12/02 06:41:09;;;;;;;54.95;24.05;;;3.70;99.90;;;;;;4989600;28;20453;-82
2022/12/02 06:43:35;;;;;;;53.38;24.08;;;3.70;99.90;;;;;;4990951;28;20086;-81
2022/12/02 06:46:03;;;;;;;50.38;23.58;;;3.70;99.90;;;;;;4982620;28;20034;-82
2022/12/02 06:48:35;;;;;;;52.92;24.15;;;3.70;99.90;;;;;;4984976;28;20034;-81
2022/12/02 06:51:15;;;;;;;52.80;24.67;;;3.70;99.90;;;;;;4983657;28;20031;-82
2022/12/02 06:53:41;;;;;;;52.50;23.92;;;3.70;99.90;;;;;;4988170;28;20026;-82
2022/12/02 06:56:33;;;;;;;51.95;24.05;;;3.70;99.90;;;;;;4988026;28;20031;-80
2022/12/02 06:59:05;;;;;;;50.90;23.27;;;3.70;99.90;;;;;;4982979;28;20084;-81
2022/12/02 07:01:42;;;;;;;51.30;24.77;;;3.70;99.90;;;;;;4985850;28;20030;-82
2022/12/02 07:04:08;;;;;;;49.30;21.70;;;3.70;99.90;;;;;;4989664;28;20030;-81
2022/12/02 07:06:51;;;;;;;46.00;22.38;;;3.70;99.90;;;;;;4989957;28;20034;-82
2022/12/02 07:09:27;;;;;;;127.67;32.87;;;3.70;99.90;;;;;;4984910;28;20065;-80
2022/12/02 07:11:54;;;;;;;46.20;21.70;;;3.70;99.90;;;;;;4987449;28;20295;-81
2022/12/02 07:14:48;;;;;;;49.78;22.45;;;3.70;99.90;;;;;;4985107;28;20045;-80
2022/12/02 07:17:25;;;;;;;53.03;22.90;;;3.70;99.90;;;;;;4988870;28;20027;-79
2022/12/02 07:20:00;;;;;;;54.42;24.13;;;3.70;99.90;;;;;;4980223;28;20077;-79
2022/12/02 07:22:39;;;;;;;52.83;22.92;;;3.70;99.90;;;;;;4985275;28;20042;-79
2022/12/02 07:25:08;;;;;;;50.25;24.20;;;3.70;99.90;;;;;;4987421;28;20512;-79
2022/12/02 07:27:38;;;;;;;52.00;23.85;;;3.70;99.90;;;;;;4983750;28;20034;-79
2022/12/02 07:30:21;;;;;;;52.38;23.73;;;3.60;99.90;;;;;;4988743;28;20026;-78
2022/12/02 07:32:47;;;;;;;53.40;24.87;;;3.70;99.90;;;;;;4987317;28;20039;-79
2022/12/02 07:35:13;;;;;;;53.80;24.30;;;3.60;99.90;;;;;;4989846;28;20343;-80
2022/12/02 07:37:38;;;;;;;53.85;25.45;;;3.70;99.90;;;;;;4989233;28;20117;-79
2022/12/02 07:40:05;;;;;;;54.28;24.67;;;3.70;99.90;;;;;;4985084;28;20109;-80
2022/12/02 07:42:30;;;;;;;53.47;24.42;;;3.70;99.90;;;;;;4987548;28;20030;-80
2022/12/02 07:44:56;;;;;;;60.75;25.25;;;3.70;99.90;;;;;;4986790;28;20034;-79
2022/12/02 07:47:22;;;;;;;50.65;22.45;;;3.70;99.90;;;;;;4984810;28;20031;-80
2022/12/02 07:49:48;;;;;;;53.90;23.98;;;3.70;99.90;;;;;;4987189;28;20034;-79
2022/12/02 07:52:13;;;;;;;53.90;23.48;;;3.70;99.90;;;;;;4985697;28;20034;-80
2022/12/02 07:54:39;;;;;;;50.88;23.88;;;3.70;99.90;;;;;;4985141;28;20562;-78
2022/12/02 07:57:05;;;;;;;53.67;24.85;;;3.70;99.90;;;;;;4987246;28;20036;-80
2022/12/02 07:59:30;;;;;;;50.25;23.13;;;3.70;99.90;;;;;;4987639;28;20617;-79
2022/12/02 08:01:56;;;;;;;51.35;24.27;;;3.70;99.90;;;;;;4986724;28;20037;-79
2022/12/02 08:04:22;;;;;;;52.38;23.10;;;3.70;99.90;;;;;;4986104;28;20031;-79
2022/12/02 08:06:47;;;;;;;49.92;22.70;;;3.70;99.90;;;;;;4985547;28;20088;-79
2022/12/02 08:09:13;;;;;;;57.33;24.23;;;3.70;99.90;;;;;;4987385;28;20042;-79
2022/12/02 08:11:38;;;;;;;54.53;24.65;;;3.70;99.90;;;;;;4977098;28;20061;-79
2022/12/02 08:14:04;;;;;;;55.05;24.45;;;3.70;99.90;;;;;;4982521;28;20049;-79
2022/12/02 08:16:30;;;;;;;48.67;23.08;;;3.70;99.90;;;;;;4986756;28;20038;-80
2022/12/02 08:18:56;;;;;;;46.25;22.33;;;3.70;99.90;;;;;;4986661;28;20032;-79
2022/12/02 08:21:22;;;;;;;51.10;22.52;;;3.70;99.90;;;;;;4984242;28;20023;-79
2022/12/02 08:23:48;;;;;;;56.92;25.58;;;3.70;99.90;;;;;;4986532;28;20567;-78
2022/12/02 08:26:13;;;;;;;46.33;22.67;;;3.80;99.90;;;;;;4989777;28;20050;-79
2022/12/02 08:28:39;;;;;;;49.25;22.77;;;3.80;99.90;;;;;;4988361;28;20116;-79
2022/12/02 08:31:05;;;;;;;48.63;22.92;;;3.70;99.90;;;;;;4986200;28;20506;-79
2022/12/02 08:33:30;;;;;;;50.67;22.73;;;3.70;99.90;;;;;;4982880;28;20093;-79
2022/12/02 08:35:56;;;;;;;44.78;21.73;;;3.80;99.90;;;;;;4988382;28;20049;-80
2022/12/02 08:38:22;;;;;;;49.40;20.85;;;3.80;99.90;;;;;;4986318;28;20030;-79
2022/12/02 08:40:47;;;;;;;49.25;22.95;;;3.80;99.90;;;;;;4979748;28;20033;-79
2022/12/02 08:43:13;;;;;;;45.38;22.05;;;3.70;99.90;;;;;;4986087;28;20025;-79
2022/12/02 08:45:39;;;;;;;49.88;22.27;;;3.80;99.90;;;;;;4990283;28;20026;-79
2022/12/02 08:48:04;;;;;;;43.67;22.67;;;3.80;99.90;;;;;;4985218;28;20034;-79
2022/12/02 08:50:31;;;;;;;42.53;20.98;;;3.80;99.90;;;;;;4985973;28;20030;-79
2022/12/02 08:52:56;;;;;;;50.47;23.15;;;3.80;99.90;;;;;;4981980;28;20034;-79
2022/12/02 08:55:22;;;;;;;53.03;23.33;;;3.80;99.90;;;;;;4985975;28;20541;-78
2022/12/02 08:57:48;;;;;;;51.72;24.63;;;3.80;99.90;;;;;;4990035;28;20435;-79
2022/12/02 09:00:14;;;;;;;53.03;23.83;;;3.80;99.90;;;;;;4989037;28;20386;-79
2022/12/02 09:02:40;;;;;;;48.50;22.50;;;3.90;99.90;;;;;;4984427;28;20109;-79
2022/12/02 09:05:05;;;;;;;55.75;23.65;;;3.90;99.90;;;;;;4993433;28;20065;-78
2022/12/02 09:07:31;;;;;;;52.60;23.42;;;3.90;99.90;;;;;;4988736;28;20018;-79
2022/12/02 09:09:57;;;;;;;50.10;23.77;;;4.00;99.90;;;;;;4989869;28;20102;-78
2022/12/02 09:12:24;;;;;;;49.13;21.65;;;3.90;99.90;;;;;;4986337;28;20089;-79
2022/12/02 09:14:50;;;;;;;45.92;21.10;;;3.90;99.90;;;;;;4989754;28;20025;-79
2022/12/02 09:17:16;;;;;;;47.08;21.70;;;3.90;99.90;;;;;;4986838;28;20034;-79
2022/12/02 09:19:41;;;;;;;47.17;21.70;;;4.00;99.90;;;;;;4988530;28;20478;-80
2022/12/02 09:22:07;;;;;;;47.05;22.73;;;4.00;99.90;;;;;;4990659;28;20546;-79
2022/12/02 09:24:33;;;;;;;50.33;22.10;;;4.00;99.90;;;;;;5003001;28;20022;-79
2022/12/02 09:26:58;;;;;;;43.45;21.08;;;4.00;99.90;;;;;;4987561;28;20069;-79
2022/12/02 09:29:24;;;;;;;48.58;20.52;;;4.00;99.90;;;;;;4986516;28;20101;-79
2022/12/02 09:31:50;;;;;;;50.05;22.05;;;4.00;99.90;;;;;;4989166;28;20037;-78
2022/12/02 09:34:15;;;;;;;42.40;20.80;;;4.00;99.90;;;;;;4985517;28;20031;-81
2022/12/02 09:36:41;;;;;;;41.22;21.33;;;4.00;99.90;;;;;;4984705;28;20502;-80
2022/12/02 09:39:07;;;;;;;46.03;19.75;;;4.00;99.90;;;;;;4988513;28;20026;-80
2022/12/02 09:41:32;;;;;;;42.42;19.83;;;4.00;99.90;;;;;;4986984;28;20038;-80
2022/12/02 09:43:58;;;;;;;42.92;19.10;;;4.10;99.90;;;;;;4982141;28;20122;-80
2022/12/02 09:46:24;;;;;;;39.03;18.45;;;4.10;99.90;;;;;;4986015;28;20098;-80
2022/12/02 09:48:50;;;;;;;32.42;16.85;;;4.10;99.90;;;;;;4987202;28;20482;-79
2022/12/02 09:51:16;;;;;;;42.67;18.73;;;4.10;99.90;;;;;;4983609;28;20030;-79
2022/12/02 09:53:42;;;;;;;35.25;16.88;;;4.20;99.90;;;;;;4986188;28;20856;-79
2022/12/02 09:56:16;;;;;;;36.30;17.30;;;4.20;99.90;;;;;;4987459;28;20026;-80
2022/12/02 09:58:42;;;;;;;38.45;18.90;;;4.20;99.90;;;;;;4985856;28;20121;-80
2022/12/02 10:01:10;;;;;;;45.15;20.58;;;4.20;99.90;;;;;;4989876;28;20027;-80
2022/12/02 10:03:36;;;;;;;40.47;19.38;;;4.20;99.90;;;;;;4983701;28;20032;-80
2022/12/02 10:06:07;;;;;;;40.15;19.27;;;4.20;99.90;;;;;;4986705;28;20066;-80
2022/12/02 10:08:33;;;;;;;37.53;18.90;;;4.20;99.90;;;;;;4975798;28;20137;-80
2022/12/02 10:10:59;;;;;;;37.42;17.48;;;4.20;99.90;;;;;;4987459;28;20100;-80
2022/12/02 10:13:26;;;;;;;39.72;19.25;;;4.20;99.90;;;;;;4980302;23;20046;-81
2022/12/02 10:15:53;;;;;;;41.92;18.77;;;4.20;99.90;;;;;;4981141;28;20443;-80
2022/12/02 10:18:21;;;;;;;42.88;18.50;;;4.30;99.90;;;;;;4980587;28;20113;-81
2022/12/02 10:20:49;;;;;;;34.72;17.80;;;4.30;99.90;;;;;;4989045;28;20024;-80
2022/12/02 10:23:22;;;;;;;39.20;18.02;;;4.30;99.90;;;;;;4988748;28;20038;-80
2022/12/02 10:25:50;;;;;;;38.90;18.63;;;4.30;99.90;;;;;;4983186;28;20124;-80
2022/12/02 10:28:26;;;;;;;36.95;17.88;;;4.30;99.90;;;;;;4986501;28;20141;-80
2022/12/02 10:31:12;;;;;;;36.35;18.55;;;4.40;99.90;;;;;;4988374;28;20030;-81
2022/12/02 10:33:51;;;;;;;33.20;17.52;;;4.40;99.90;;;;;;4986582;28;20039;-80
2022/12/02 10:36:39;;;;;;;35.40;16.70;;;4.40;99.90;;;;;;4987667;28;20033;-80
2022/12/02 10:39:21;;;;;;;36.47;17.38;;;4.40;99.90;;;;;;4987556;28;20125;-80
2022/12/02 10:41:48;;;;;;;37.97;18.48;;;4.40;99.90;;;;;;5004693;28;20030;-81
2022/12/02 10:44:19;;;;;;;39.67;19.00;;;4.40;99.90;;;;;;4989543;28;20394;-80
2022/12/02 10:46:46;;;;;;;37.22;16.42;;;4.40;99.90;;;;;;4985182;28;20026;-80
2022/12/02 10:49:25;;;;;;;38.88;19.10;;;4.40;99.90;;;;;;4990250;28;20085;-80
2022/12/02 10:51:52;;;;;;;40.22;17.40;;;4.50;99.90;;;;;;4986834;28;20018;-80
2022/12/02 10:54:28;;;;;;;36.30;17.95;;;4.50;99.90;;;;;;4988878;28;20057;-81
2022/12/02 10:57:01;;;;;;;38.80;18.23;;;4.50;99.90;;;;;;4989978;28;20027;-81
2022/12/02 10:59:28;;;;;;;33.00;16.48;;;4.50;99.90;;;;;;4990561;28;20482;-82
2022/12/02 11:01:54;;;;;;;37.92;18.08;;;4.60;99.90;;;;;;4992116;28;20036;-81
2022/12/02 11:04:20;;;;;;;35.90;16.90;;;4.50;99.90;;;;;;4996862;28;20524;-81
2022/12/02 11:06:46;;;;;;;34.80;17.58;;;4.50;99.90;;;;;;4999855;28;20026;-81
2022/12/02 11:09:25;;;;;;;36.50;18.23;;;4.50;99.90;;;;;;4997845;28;20033;-81
2022/12/02 11:11:52;;;;;;;37.72;17.23;;;4.50;99.90;;;;;;4999190;28;20100;-80
2022/12/02 11:14:54;;;;;;;35.63;16.77;;;4.40;99.90;;;;;;4991462;28;20030;-80
2022/12/02 11:17:48;;;;;;;36.03;17.55;;;4.40;99.90;;;;;;4968340;28;20061;-81
2022/12/02 11:20:31;;;;;;;36.15;17.65;;;4.40;99.90;;;;;;4998383;28;20546;-80
2022/12/02 11:22:59;;;;;;;35.67;17.45;;;4.40;99.90;;;;;;4999693;28;20034;-80
2022/12/02 11:25:46;;;;;;;37.05;17.45;;;4.40;99.90;;;;;;4987953;28;20019;-80
2022/12/02 11:28:27;;;;;;;36.42;17.02;;;4.40;99.90;;;;;;4984660;28;20081;-82
2022/12/02 11:31:11;;;;;;;31.55;16.00;;;4.30;99.90;;;;;;4984938;28;20070;-81
2022/12/02 11:33:43;;;;;;;35.50;16.27;;;4.30;99.90;;;;;;4981344;28;20034;-80
2022/12/02 11:36:08;;;;;;;40.97;19.65;;;4.30;99.90;;;;;;4984498;28;20034;-82
2022/12/02 11:38:49;;;;;;;35.60;17.77;;;4.30;99.90;;;;;;4984040;28;20086;-82
2022/12/02 11:41:16;;;;;;;32.72;16.27;;;4.30;99.90;;;;;;4983545;28;20018;-81
2022/12/02 11:43:45;;;;;;;41.47;18.30;;;4.30;99.90;;;;;;4985448;28;20057;-81
2022/12/02 11:46:14;;;;;;;40.55;18.30;;;4.30;99.90;;;;;;4984153;28;20042;-81
2022/12/02 11:48:48;;;;;;;42.35;19.08;;;4.20;99.90;;;;;;4980197;28;20197;-81
2022/12/02 11:51:38;;;;;;;37.58;17.40;;;4.20;99.90;;;;;;4982111;28;20041;-80
2022/12/02 11:54:09;;;;;;;31.42;16.25;;;4.20;99.90;;;;;;4985609;28;20505;-79
2022/12/02 11:56:37;;;;;;;40.58;18.80;;;4.20;99.90;;;;;;4988238;28;20410;-80
2022/12/02 11:59:22;;;;;;;36.58;17.27;;;4.20;99.90;;;;;;4985001;28;20081;-80
2022/12/02 12:01:48;;;;;;;36.88;17.52;;;4.20;99.90;;;;;;4981148;28;20023;-80
2022/12/02 12:04:28;;;;;;;33.60;17.00;;;4.20;99.90;;;;;;4983165;28;20085;-80
2022/12/02 12:06:56;;;;;;;43.65;18.15;;;4.10;99.90;;;;;;4987233;28;20123;-80
2022/12/02 12:09:22;;;;;;;32.50;17.60;;;4.20;99.90;;;;;;4982154;28;20476;-80
2022/12/02 12:12:10;;;;;;;39.47;19.27;;;4.20;99.90;;;;;;4986823;28;20045;-80
2022/12/02 12:14:54;;;;;;;36.55;17.35;;;4.20;99.90;;;;;;4979759;28;20034;-79
2022/12/02 12:17:37;;;;;;;38.78;18.08;;;4.20;99.90;;;;;;4999374;28;20034;-80
2022/12/02 12:20:23;;;;;;;37.75;17.02;;;4.20;99.90;;;;;;4982105;28;20129;-82
2022/12/02 12:22:49;;;;;;;38.20;17.65;;;4.20;99.90;;;;;;4981514;28;20038;-82
2022/12/02 12:25:40;;;;;;;34.42;17.45;;;4.20;99.90;;;;;;4986739;28;20102;-83
2022/12/02 12:28:26;;;;;;;34.42;16.23;;;4.20;99.90;;;;;;4992501;28;20023;-83
2022/12/02 12:30:52;;;;;;;32.85;17.38;;;4.20;99.90;;;;;;4988807;28;20022;-81
2022/12/02 12:33:18;;;;;;;34.55;16.10;;;4.10;99.90;;;;;;4987942;28;20033;-84
2022/12/02 12:35:44;;;;;;;29.52;15.90;;;4.10;99.90;;;;;;4992775;28;20026;-85
2022/12/02 12:38:09;;;;;;;29.95;15.18;;;4.10;99.90;;;;;;4996355;28;20121;-86
2022/12/02 12:40:35;;;;;;;35.55;16.45;;;4.10;99.90;;;;;;4990410;28;20101;-83
2022/12/02 12:43:01;;;;;;;37.92;17.08;;;4.10;99.90;;;;;;4989961;28;20529;-82
2022/12/02 12:45:26;;;;;;;35.03;14.68;;;4.20;99.90;;;;;;4990413;28;20034;-84